Pirane, Argentina
Current Conditions -  °F | °C
As of 3:00 AM on Saturday 25 Oct 2014 (Local Time) from SARF Reporting Station
Clear Clear  
Wind Chill: 73°   Ceiling: Unl
Heat Index: 73°   Visibility: 6mi
Dew Point: 64°   Wind: 7mph
Humidity: 73%   Direction: 140°SE
Pressure: 29.83"   Gusts: NA
Location:  25.72°S, 59.1°W
Report Text: SARF 250600Z 14006KT CAVOK 23/18 Q1010
Loading
Personal Weather Stations






























Interactive Weather Map New forecast layout! Learn more

10-Day Weather Forecast

Advertisements
Track Severe Weather on mobile